Terminal Aerodrome Forecast
Issued by NWS

Home | Current Version | Previous Version | Text Only | Print | Product List | Glossary On
Versions: 1 2 3 4 5 6 7 8 9 10 11 12 13 14 15 16 17 18 19 20 21 22 23 24 25 26 27 28 29
000
FTUS41 KALY 181700 RRA
TAFPSF
TAF
KPSF 181743Z 1818/1918 28008G14KT P6SM VCSH BKN040
     FM182300 30007KT P6SM BKN045
     FM190400 33003KT P6SM SCT040
     FM190700 VRB02KT 6SM BR FEW003
      TEMPO 1907/1911 2SM BR BKN003
     FM191300 03006KT P6SM SKC=

USA.gov is the U.S. government's official web portal to all federal, state and local government web resources and services.